createdAt,value
2022-08-05T00:00:46.223Z,92.70
2022-08-05T00:03:15.596Z,92.30
2022-08-05T00:06:06.385Z,92.60
2022-08-05T00:08:34.625Z,93.10
2022-08-05T00:11:01.334Z,93.20
2022-08-05T00:13:38.295Z,93.50
2022-08-05T00:16:06.306Z,93.70
2022-08-05T00:18:32.859Z,93.10
2022-08-05T00:20:57.084Z,93.30
2022-08-05T00:23:44.340Z,93.50
2022-08-05T00:26:07.336Z,93.30
2022-08-05T00:28:31.049Z,94.90
2022-08-05T00:30:56.755Z,94.10
2022-08-05T00:34:55.523Z,94.40
2022-08-05T00:36:16.530Z,94.70
2022-08-05T00:38:55.849Z,95.40
2022-08-05T00:41:52.165Z,95.10
2022-08-05T00:44:16.694Z,95.00
2022-08-05T00:46:42.634Z,95.50
2022-08-05T00:49:07.802Z,95.50
2022-08-05T00:51:50.559Z,95.70
2022-08-05T00:54:15.746Z,96.00
2022-08-05T00:56:47.061Z,96.50
2022-08-05T00:59:15.358Z,96.90
2022-08-05T01:01:42.637Z,97.40
2022-08-05T01:04:14.253Z,97.30
2022-08-05T01:06:39.392Z,97.30
2022-08-05T01:09:06.303Z,97.70
2022-08-05T01:11:37.217Z,98.30
2022-08-05T01:14:15.346Z,99.00
2022-08-05T01:16:47.252Z,98.80
2022-08-05T01:19:56.470Z,99.90
2022-08-05T01:22:41.975Z,99.90
2022-08-05T01:25:53.513Z,99.90
2022-08-05T01:28:28.353Z,99.90
2022-08-05T01:30:58.028Z,99.90
2022-08-05T01:33:26.330Z,99.90
2022-08-05T01:35:53.262Z,99.90
2022-08-05T01:38:27.016Z,99.90
2022-08-05T01:40:55.757Z,99.90
2022-08-05T01:43:24.118Z,99.90
2022-08-05T01:45:56.111Z,99.90
2022-08-05T01:48:22.284Z,99.90
2022-08-05T01:50:50.980Z,99.90
2022-08-05T01:53:54.993Z,99.90
2022-08-05T01:56:04.923Z,99.90
2022-08-05T01:58:41.070Z,99.90
2022-08-05T02:01:16.139Z,99.90
2022-08-05T02:03:50.381Z,99.90
2022-08-05T02:06:37.825Z,99.90
2022-08-05T02:08:59.411Z,99.90
2022-08-05T02:11:24.112Z,99.90
2022-08-05T02:14:12.490Z,99.90
2022-08-05T02:16:46.903Z,99.90
2022-08-05T02:19:27.232Z,99.90
2022-08-05T02:21:57.380Z,99.90
2022-08-05T02:24:29.251Z,99.90
2022-08-05T02:26:57.888Z,99.90
2022-08-05T02:29:59.966Z,99.90
2022-08-05T02:32:23.913Z,99.90
2022-08-05T02:34:54.933Z,99.90
2022-08-05T02:37:20.578Z,99.90
2022-08-05T02:39:47.725Z,99.90
2022-08-05T02:42:25.827Z,99.90
2022-08-05T02:44:52.728Z,99.90
2022-08-05T02:47:18.723Z,99.90
2022-08-05T02:49:44.571Z,99.90
2022-08-05T02:52:25.793Z,99.90
2022-08-05T02:54:54.589Z,99.90
2022-08-05T02:58:11.823Z,99.90
2022-08-05T03:00:06.841Z,99.90
2022-08-05T03:02:36.645Z,99.90
2022-08-05T03:05:01.308Z,99.90
2022-08-05T03:08:00.670Z,99.90
2022-08-05T03:10:13.406Z,99.90
2022-08-05T03:12:39.894Z,99.90
2022-08-05T03:15:06.984Z,99.90
2022-08-05T03:17:34.400Z,99.90
2022-08-05T03:20:07.128Z,99.90
2022-08-05T03:22:34.113Z,99.90
2022-08-05T03:25:02.097Z,99.90
2022-08-05T03:27:57.957Z,99.90
2022-08-05T03:30:20.877Z,99.90
2022-08-05T03:32:56.460Z,99.90
2022-08-05T03:35:20.540Z,99.90
2022-08-05T03:37:46.002Z,99.90
2022-08-05T03:40:13.159Z,99.90
2022-08-05T03:42:41.583Z,99.90
2022-08-05T03:45:22.057Z,99.90
2022-08-05T03:47:46.692Z,99.90
2022-08-05T03:50:14.610Z,99.90
2022-08-05T03:55:50.834Z,99.90
2022-08-05T03:56:04.593Z,99.90
2022-08-05T03:58:28.938Z,99.90
2022-08-05T04:00:54.691Z,99.90
2022-08-05T04:03:28.594Z,99.90
2022-08-05T04:05:54.731Z,99.90
2022-08-05T04:08:34.712Z,99.90
2022-08-05T04:11:01.060Z,99.90
2022-08-05T04:13:25.553Z,99.90
2022-08-05T04:16:03.353Z,99.90
2022-08-05T04:18:29.019Z,99.90
2022-08-05T04:20:59.095Z,99.90
2022-08-05T04:24:04.910Z,99.90
2022-08-05T04:26:09.220Z,99.90
2022-08-05T04:28:37.372Z,99.90
2022-08-05T04:31:15.116Z,99.90
2022-08-05T04:34:19.341Z,99.90
2022-08-05T04:36:46.610Z,99.90
2022-08-05T04:39:08.906Z,99.90
2022-08-05T04:41:37.192Z,99.90
2022-08-05T04:44:02.501Z,99.90
2022-08-05T04:46:33.572Z,99.90
2022-08-05T04:48:58.734Z,99.90
2022-08-05T04:51:24.083Z,99.90
2022-08-05T04:53:48.500Z,99.90
2022-08-05T04:56:33.742Z,99.90
2022-08-05T04:58:56.045Z,99.90
2022-08-05T05:02:05.970Z,99.90
2022-08-05T05:04:04.688Z,99.90
2022-08-05T05:06:39.000Z,99.90
2022-08-05T05:09:08.017Z,99.90
2022-08-05T05:11:41.593Z,99.90
2022-08-05T05:14:16.319Z,99.90
2022-08-05T05:16:40.071Z,99.90
2022-08-05T05:19:18.671Z,99.90
2022-08-05T05:21:44.759Z,99.90
2022-08-05T05:24:10.409Z,99.90
2022-08-05T05:26:34.954Z,99.90
2022-08-05T05:28:59.332Z,99.90
2022-08-05T05:31:23.277Z,99.90
2022-08-05T05:33:59.697Z,99.90
2022-08-05T05:36:25.612Z,99.90
2022-08-05T05:38:54.033Z,99.90
2022-08-05T05:41:18.520Z,99.90
2022-08-05T05:43:56.872Z,99.90
2022-08-05T05:46:24.180Z,99.90
2022-08-05T05:48:49.172Z,99.90
2022-08-05T05:51:15.587Z,99.90
2022-08-05T05:53:54.323Z,99.90
2022-08-05T05:56:26.200Z,99.90
2022-08-05T05:58:57.217Z,99.90
2022-08-05T06:01:30.374Z,99.90
2022-08-05T06:04:03.938Z,99.90
2022-08-05T06:06:31.029Z,99.90
2022-08-05T06:08:55.200Z,99.90
2022-08-05T06:11:19.315Z,99.90
2022-08-05T06:13:50.533Z,99.90
2022-08-05T06:16:28.192Z,99.90
2022-08-05T06:18:55.831Z,99.90
2022-08-05T06:21:23.871Z,99.90
2022-08-05T06:24:00.085Z,99.90
2022-08-05T06:26:25.436Z,99.90
2022-08-05T06:28:57.094Z,99.90
2022-08-05T06:31:22.028Z,99.90
2022-08-05T06:34:07.263Z,99.90
2022-08-05T06:36:30.015Z,99.90
2022-08-05T06:39:13.847Z,99.90
2022-08-05T06:41:41.287Z,99.90
2022-08-05T06:44:06.820Z,99.90
2022-08-05T06:46:30.727Z,99.90
2022-08-05T06:48:58.856Z,99.90
2022-08-05T06:51:29.084Z,99.90
2022-08-05T06:53:54.088Z,99.90
2022-08-05T06:56:26.313Z,99.90
2022-08-05T06:58:50.684Z,99.90
2022-08-05T07:01:15.863Z,99.90
2022-08-05T07:03:44.880Z,99.90
2022-08-05T07:06:14.422Z,99.90
2022-08-05T07:08:39.015Z,99.90
2022-08-05T07:11:06.229Z,99.90
2022-08-05T07:13:59.839Z,99.90
2022-08-05T07:18:01.402Z,99.90
2022-08-05T07:20:05.819Z,99.90
2022-08-05T07:22:10.688Z,99.90
2022-08-05T07:24:43.721Z,99.90
2022-08-05T07:27:16.049Z,99.90
2022-08-05T07:30:23.909Z,99.90
2022-08-05T07:32:26.291Z,99.90
2022-08-05T07:34:50.187Z,99.90
2022-08-05T07:37:21.872Z,99.90
2022-08-05T07:40:27.050Z,99.90
2022-08-05T07:42:33.776Z,99.90
2022-08-05T07:44:57.796Z,99.90
2022-08-05T07:47:25.827Z,99.90
2022-08-05T07:49:54.216Z,99.90
2022-08-05T07:52:18.419Z,99.90
2022-08-05T07:54:47.625Z,99.90
2022-08-05T07:57:50.581Z,99.90
2022-08-05T07:59:57.788Z,99.90
2022-08-05T08:02:31.241Z,99.90
2022-08-05T08:05:12.533Z,99.90
2022-08-05T08:07:39.425Z,99.90
2022-08-05T08:10:03.768Z,99.90
2022-08-05T08:12:37.959Z,99.90
2022-08-05T08:15:15.842Z,99.90
2022-08-05T08:17:46.261Z,99.90
2022-08-05T08:20:42.795Z,99.90
2022-08-05T08:23:03.299Z,99.90
2022-08-05T08:26:00.031Z,99.90
2022-08-05T08:28:18.779Z,99.90
2022-08-05T08:30:56.868Z,99.90
2022-08-05T08:33:22.776Z,99.90
2022-08-05T08:35:52.691Z,99.90
2022-08-05T08:38:18.247Z,99.90
2022-08-05T08:41:01.099Z,99.90
2022-08-05T08:45:17.009Z,99.90
2022-08-05T08:46:15.645Z,99.90
2022-08-05T08:49:06.077Z,99.90
2022-08-05T08:52:03.127Z,99.90
2022-08-05T08:54:17.556Z,99.90
2022-08-05T08:56:47.907Z,99.90
2022-08-05T08:59:19.333Z,99.90
2022-08-05T09:01:44.929Z,99.90
2022-08-05T09:04:23.185Z,99.90
2022-08-05T09:06:54.565Z,99.90
2022-08-05T09:09:18.373Z,99.90
2022-08-05T09:11:53.091Z,99.90
2022-08-05T09:14:57.953Z,99.90
2022-08-05T09:17:09.448Z,99.90
2022-08-05T09:20:01.826Z,99.90
2022-08-05T09:22:31.810Z,99.90
2022-08-05T09:25:00.423Z,99.90
2022-08-05T09:28:04.081Z,99.90
2022-08-05T09:30:19.122Z,99.90
2022-08-05T09:32:47.376Z,99.90
2022-08-05T09:35:26.303Z,99.90
2022-08-05T09:38:16.459Z,99.90
2022-08-05T09:40:51.857Z,99.90
2022-08-05T09:43:40.588Z,99.90
2022-08-05T09:46:11.975Z,99.90
2022-08-05T09:48:39.716Z,99.90
2022-08-05T09:51:15.352Z,99.90
2022-08-05T09:53:54.327Z,99.90
2022-08-05T09:56:27.092Z,99.90
2022-08-05T09:59:04.093Z,99.90
2022-08-05T10:01:32.595Z,99.90
2022-08-05T10:04:00.434Z,99.90
2022-08-05T10:06:25.821Z,99.90
2022-08-05T10:08:50.291Z,99.90
2022-08-05T10:11:18.968Z,99.90
2022-08-05T10:13:47.836Z,99.90
2022-08-05T10:16:33.975Z,99.90
2022-08-05T10:18:58.489Z,99.90
2022-08-05T10:21:23.020Z,99.90
2022-08-05T10:23:59.375Z,99.90
2022-08-05T10:26:32.759Z,99.90
2022-08-05T10:28:57.798Z,99.90
2022-08-05T10:32:53.603Z,99.90
2022-08-05T10:34:08.144Z,99.90
2022-08-05T10:36:32.190Z,99.90
2022-08-05T10:39:10.305Z,99.90
2022-08-05T10:41:47.805Z,99.90
2022-08-05T10:44:15.012Z,99.90
2022-08-05T10:46:50.945Z,99.90
2022-08-05T10:49:18.647Z,99.90
2022-08-05T10:52:00.237Z,99.90
2022-08-05T10:54:56.786Z,99.90
2022-08-05T10:57:31.701Z,99.90
2022-08-05T11:00:19.842Z,99.90
2022-08-05T11:03:24.419Z,99.90
2022-08-05T11:06:15.450Z,99.90
2022-08-05T11:09:16.723Z,99.90
2022-08-05T11:11:52.811Z,99.90
2022-08-05T11:14:57.886Z,99.90
2022-08-05T11:17:58.705Z,99.90
2022-08-05T11:20:41.756Z,99.90
2022-08-05T11:24:04.787Z,99.90
2022-08-05T11:26:28.857Z,99.90
2022-08-05T11:29:06.854Z,99.90
2022-08-05T11:31:58.660Z,99.90
2022-08-05T11:34:38.485Z,99.90
2022-08-05T11:37:02.569Z,99.90
2022-08-05T11:39:55.259Z,99.90
2022-08-05T11:42:28.018Z,99.90
2022-08-05T11:44:56.336Z,99.90
2022-08-05T11:47:49.340Z,99.90
2022-08-05T11:50:09.983Z,99.90
2022-08-05T11:52:38.289Z,99.90
2022-08-05T11:55:07.603Z,99.90
2022-08-05T11:57:39.331Z,99.90
2022-08-05T12:00:30.421Z,99.90
2022-08-05T12:02:54.385Z,99.90
2022-08-05T12:05:36.382Z,99.90
2022-08-05T12:08:11.254Z,99.90
2022-08-05T12:10:43.839Z,99.90
2022-08-05T12:13:15.491Z,99.90
2022-08-05T12:15:45.342Z,99.90
2022-08-05T12:18:20.559Z,99.90
2022-08-05T12:20:44.543Z,99.90
2022-08-05T12:23:10.483Z,99.90
2022-08-05T12:25:50.343Z,99.90
2022-08-05T12:28:15.089Z,99.90
2022-08-05T12:30:45.715Z,99.90
2022-08-05T12:33:27.806Z,97.70
2022-08-05T12:35:53.999Z,96.90
2022-08-05T12:38:18.016Z,99.10
2022-08-05T12:40:46.286Z,99.60
2022-08-05T12:43:10.037Z,99.30
2022-08-05T12:45:42.724Z,99.90
2022-08-05T12:48:27.369Z,98.30
2022-08-05T12:52:10.299Z,97.20
2022-08-05T12:54:03.325Z,98.90
2022-08-05T12:56:35.405Z,99.90
2022-08-05T12:59:21.121Z,98.80
2022-08-05T13:02:07.354Z,98.30
2022-08-05T13:04:34.752Z,97.50
2022-08-05T13:07:10.931Z,97.70
2022-08-05T13:09:41.268Z,96.50
2022-08-05T13:12:16.101Z,95.90
2022-08-05T13:14:42.617Z,97.00
2022-08-05T13:17:11.487Z,95.70
2022-08-05T13:19:51.631Z,95.20
2022-08-05T13:22:28.503Z,98.00
2022-08-05T13:24:58.113Z,96.80
2022-08-05T13:27:37.458Z,97.30
2022-08-05T13:30:34.254Z,96.10
2022-08-05T13:32:50.616Z,96.50
2022-08-05T13:35:31.333Z,97.70
2022-08-05T13:38:04.866Z,97.70
2022-08-05T13:40:47.977Z,98.60
2022-08-05T13:43:13.759Z,98.80
2022-08-05T13:45:45.990Z,98.50
2022-08-05T13:48:57.792Z,98.60
2022-08-05T13:50:56.204Z,99.90
2022-08-05T13:53:20.312Z,99.30
2022-08-05T13:55:50.104Z,99.00
2022-08-05T13:58:30.972Z,99.00
2022-08-05T14:00:54.977Z,98.50
2022-08-05T14:03:18.693Z,98.90
2022-08-05T14:06:24.595Z,99.10
2022-08-05T14:08:27.468Z,98.50
2022-08-05T14:10:52.101Z,98.60
2022-08-05T14:13:16.284Z,99.10
2022-08-05T14:16:08.865Z,99.60
2022-08-05T14:18:24.183Z,98.90
2022-08-05T14:20:48.683Z,98.40
2022-08-05T14:23:12.616Z,98.60
2022-08-05T14:25:45.100Z,98.30
2022-08-05T14:28:09.145Z,97.10
2022-08-05T14:30:49.867Z,97.80
2022-08-05T14:33:22.872Z,98.20
2022-08-05T14:35:51.918Z,98.20
2022-08-05T14:38:32.558Z,98.00
2022-08-05T14:41:01.129Z,98.50
2022-08-05T14:43:59.243Z,97.80
2022-08-05T14:46:08.860Z,98.30
2022-08-05T14:48:33.756Z,98.20
2022-08-05T14:50:57.852Z,98.60
2022-08-05T14:53:21.636Z,98.80
2022-08-05T14:55:52.091Z,98.70
2022-08-05T14:58:17.796Z,99.10
2022-08-05T15:00:59.467Z,99.00
2022-08-05T15:03:24.011Z,98.70
2022-08-05T15:06:06.907Z,99.50
2022-08-05T15:08:37.967Z,99.00
2022-08-05T15:11:16.058Z,99.40
2022-08-05T15:13:46.049Z,99.90
2022-08-05T15:16:14.404Z,99.90
2022-08-05T15:18:38.630Z,99.90
2022-08-05T15:21:07.400Z,99.90
2022-08-05T15:23:31.756Z,99.90
2022-08-05T15:25:59.724Z,99.90
2022-08-05T15:28:27.335Z,99.90
2022-08-05T15:30:53.595Z,99.90
2022-08-05T15:34:04.126Z,99.90
2022-08-05T15:36:03.622Z,99.90
2022-08-05T15:38:34.708Z,99.90
2022-08-05T15:41:22.322Z,99.90
2022-08-05T15:43:45.935Z,99.90
2022-08-05T15:46:12.316Z,99.90
2022-08-05T15:48:36.779Z,99.90
2022-08-05T15:51:03.601Z,99.90
2022-08-05T15:53:38.293Z,99.90
2022-08-05T15:56:14.417Z,99.90
2022-08-05T15:58:38.232Z,99.90
2022-08-05T16:01:11.560Z,99.90
2022-08-05T16:03:42.678Z,99.90
2022-08-05T16:06:07.211Z,99.90
2022-08-05T16:08:35.551Z,99.90
2022-08-05T16:10:59.552Z,99.90
2022-08-05T16:13:24.102Z,99.90
2022-08-05T16:15:58.005Z,99.90
2022-08-05T16:18:21.792Z,99.90
2022-08-05T16:20:54.147Z,99.90
2022-08-05T16:23:17.830Z,99.90
2022-08-05T16:25:41.647Z,99.90
2022-08-05T16:28:06.579Z,99.90
2022-08-05T16:30:34.220Z,99.90
2022-08-05T16:33:00.567Z,99.90
2022-08-05T16:35:27.567Z,99.90
2022-08-05T16:38:15.643Z,99.90
2022-08-05T16:40:37.722Z,99.90
2022-08-05T16:43:01.484Z,99.90
2022-08-05T16:46:03.790Z,99.90
2022-08-05T16:48:10.884Z,99.90
2022-08-05T16:50:49.388Z,99.90
2022-08-05T16:53:22.971Z,99.90
2022-08-05T16:55:56.381Z,99.90
2022-08-05T16:58:20.552Z,99.90
2022-08-05T17:00:44.366Z,99.90
2022-08-05T17:03:19.798Z,99.90
2022-08-05T17:05:44.152Z,99.90
2022-08-05T17:08:16.903Z,99.90
2022-08-05T17:11:00.416Z,99.90
2022-08-05T17:13:37.278Z,99.90
2022-08-05T17:16:28.114Z,99.90
2022-08-05T17:18:49.911Z,99.90
2022-08-05T17:21:13.640Z,99.90
2022-08-05T17:24:04.664Z,99.90
2022-08-05T17:26:24.697Z,99.90
2022-08-05T17:28:50.845Z,99.90
2022-08-05T17:31:24.658Z,99.90
2022-08-05T17:33:58.466Z,99.90
2022-08-05T17:36:33.682Z,99.90
2022-08-05T17:39:01.619Z,99.90
2022-08-05T17:42:18.901Z,99.90
2022-08-05T17:44:11.145Z,99.90
2022-08-05T17:46:35.016Z,99.90
2022-08-05T17:48:59.238Z,99.90
2022-08-05T17:51:23.196Z,99.90
2022-08-05T17:53:54.473Z,99.90
2022-08-05T17:56:20.016Z,99.90
2022-08-05T17:58:46.366Z,99.90
2022-08-05T18:01:10.192Z,99.90
2022-08-05T18:04:03.785Z,99.90
2022-08-05T18:06:18.475Z,99.90
2022-08-05T18:08:53.115Z,99.90
2022-08-05T18:11:24.550Z,99.90
2022-08-05T18:13:56.572Z,99.90
2022-08-05T18:16:23.493Z,99.90
2022-08-05T18:18:48.070Z,99.90
2022-08-05T18:21:19.959Z,99.90
2022-08-05T18:23:45.628Z,99.90
2022-08-05T18:26:10.733Z,99.90
2022-08-05T18:28:35.920Z,99.90
2022-08-05T18:30:59.760Z,99.90
2022-08-05T18:33:24.332Z,99.90
2022-08-05T18:35:59.971Z,99.90
2022-08-05T18:38:27.872Z,99.90
2022-08-05T18:41:57.226Z,99.90
2022-08-05T18:43:43.106Z,99.90
2022-08-05T18:46:12.736Z,99.90
2022-08-05T18:48:36.779Z,99.90
2022-08-05T18:52:02.937Z,99.90
2022-08-05T18:54:07.167Z,99.90
2022-08-05T18:56:32.684Z,99.90
2022-08-05T18:59:01.237Z,99.90
2022-08-05T19:01:33.212Z,99.90
2022-08-05T19:03:57.515Z,99.90
2022-08-05T19:06:22.400Z,99.90
2022-08-05T19:08:58.159Z,99.90
2022-08-05T19:11:28.532Z,99.90
2022-08-05T19:14:15.196Z,99.90
2022-08-05T19:16:47.289Z,99.90
2022-08-05T19:19:11.144Z,99.90
2022-08-05T19:21:36.742Z,99.90
2022-08-05T19:24:07.482Z,99.90
2022-08-05T19:26:32.976Z,99.90
2022-08-05T19:28:57.308Z,99.90
2022-08-05T19:31:22.888Z,99.90
2022-08-05T19:33:48.550Z,99.90
2022-08-05T19:36:20.716Z,99.90
2022-08-05T19:38:45.827Z,99.90
2022-08-05T19:41:12.331Z,99.90
2022-08-05T19:44:05.375Z,99.90
2022-08-05T19:46:29.460Z,99.90
2022-08-05T19:48:54.568Z,99.90
2022-08-05T19:52:04.524Z,99.90
2022-08-05T19:54:12.893Z,99.90
2022-08-05T19:56:50.821Z,99.90
2022-08-05T19:59:51.577Z,99.90
2022-08-05T20:02:01.476Z,99.90
2022-08-05T20:04:26.579Z,99.90
2022-08-05T20:06:51.820Z,99.90
2022-08-05T20:09:15.795Z,99.90
2022-08-05T20:11:41.303Z,99.90
2022-08-05T20:14:14.668Z,99.90
2022-08-05T20:16:42.017Z,99.90
2022-08-05T20:19:08.652Z,99.90
2022-08-05T20:21:32.541Z,99.90
2022-08-05T20:23:57.384Z,99.90
2022-08-05T20:26:22.091Z,99.90
2022-08-05T20:28:48.698Z,99.90
2022-08-05T20:31:12.617Z,99.90
2022-08-05T20:33:36.390Z,99.90
2022-08-05T20:36:02.284Z,99.90
2022-08-05T20:38:27.335Z,99.90
2022-08-05T20:40:52.592Z,99.90
2022-08-05T20:43:33.265Z,99.90
2022-08-05T20:46:03.301Z,99.90
2022-08-05T20:48:27.012Z,99.90
2022-08-05T20:50:50.914Z,99.90
2022-08-05T20:53:36.531Z,99.90
2022-08-05T20:56:08.838Z,99.90
2022-08-05T20:58:33.196Z,99.90
2022-08-05T21:00:57.069Z,99.90
2022-08-05T21:03:20.921Z,99.90
2022-08-05T21:05:53.505Z,99.90
2022-08-05T21:08:20.108Z,99.90
2022-08-05T21:10:48.990Z,99.90
2022-08-05T21:13:15.905Z,99.90
2022-08-05T21:15:40.985Z,99.90
2022-08-05T21:18:08.340Z,99.90
2022-08-05T21:20:34.927Z,99.90
2022-08-05T21:22:59.473Z,99.90
2022-08-05T21:25:25.420Z,99.90
2022-08-05T21:27:57.918Z,99.90
2022-08-05T21:30:22.039Z,99.90
2022-08-05T21:32:47.756Z,99.90
2022-08-05T21:35:18.126Z,99.90
2022-08-05T21:37:53.948Z,99.90
2022-08-05T21:40:17.712Z,99.90
2022-08-05T21:42:45.137Z,99.90
2022-08-05T21:45:10.762Z,99.90
2022-08-05T21:47:56.125Z,99.90
2022-08-05T21:50:20.362Z,99.90
2022-08-05T21:52:47.406Z,99.90
2022-08-05T21:55:11.695Z,99.90
2022-08-05T21:57:42.782Z,99.90
2022-08-05T22:00:12.257Z,99.90
2022-08-05T22:02:38.984Z,99.90
2022-08-05T22:05:04.312Z,99.90
2022-08-05T22:07:39.439Z,99.90
2022-08-05T22:10:12.353Z,99.90
2022-08-05T22:12:40.310Z,99.90
2022-08-05T22:15:16.587Z,99.90
2022-08-05T22:17:56.324Z,99.90
2022-08-05T22:20:23.682Z,99.90
2022-08-05T22:23:16.927Z,99.90
2022-08-05T22:26:11.366Z,99.90
2022-08-05T22:28:35.668Z,99.90
2022-08-05T22:31:05.578Z,99.90
2022-08-05T22:33:57.050Z,99.90
2022-08-05T22:36:15.038Z,99.90
2022-08-05T22:38:39.196Z,99.90
2022-08-05T22:41:09.550Z,99.90
2022-08-05T22:43:36.884Z,99.90
2022-08-05T22:46:08.826Z,99.90
2022-08-05T22:48:38.016Z,99.90
2022-08-05T22:51:01.929Z,99.90
2022-08-05T22:53:35.607Z,99.90
2022-08-05T22:55:59.906Z,99.90
2022-08-05T22:58:28.457Z,99.90
2022-08-05T23:00:52.565Z,99.90
2022-08-05T23:03:22.251Z,99.90
2022-08-05T23:06:06.180Z,99.90
2022-08-05T23:08:30.719Z,99.90
2022-08-05T23:10:56.073Z,99.90
2022-08-05T23:13:19.852Z,99.90
2022-08-05T23:15:43.859Z,99.90
2022-08-05T23:18:16.076Z,99.90
2022-08-05T23:20:43.040Z,99.90
2022-08-05T23:23:09.010Z,99.90
2022-08-05T23:25:52.568Z,99.90
2022-08-05T23:28:17.269Z,99.90
2022-08-05T23:30:43.831Z,99.90
2022-08-05T23:33:16.335Z,99.90
2022-08-05T23:35:52.006Z,99.90
2022-08-05T23:38:19.199Z,99.90
2022-08-05T23:40:49.843Z,99.90
2022-08-05T23:43:24.773Z,99.90
2022-08-05T23:45:58.025Z,99.90
2022-08-05T23:48:22.419Z,99.90
2022-08-05T23:50:51.528Z,99.90
2022-08-05T23:53:22.974Z,99.90
2022-08-05T23:55:47.056Z,99.90
2022-08-05T23:58:31.678Z,99.90
